Time;durP1;ratioP1;P1;durP2;ratioP2;P2;SDS_P1;SDS_P2;PMS_P1;PMS_P2;Temp;Humidity;BMP_temperature;BMP_pressure;BME280_temperature;BME280_humidity;BME280_pressure;Samples;Min_cycle;Max_cycle;Signal;HPM_P1;HPM_P2
2022/08/16 00:00:24;;;;;;;10.65;4.97;;;18.00;99.90;;;;;;5080788;28;20023;-73
2022/08/16 00:02:51;;;;;;;10.48;5.97;;;17.60;99.90;;;;;;5062362;28;20019;-75
2022/08/16 00:05:18;;;;;;;9.20;4.70;;;15.40;99.90;;;;;;5062659;28;20016;-74
2022/08/16 00:07:44;;;;;;;8.52;4.65;;;17.40;99.90;;;;;;5080446;28;20023;-73
2022/08/16 00:10:12;;;;;;;12.38;4.90;;;17.30;99.90;;;;;;5080677;28;20032;-74
2022/08/16 00:12:40;;;;;;;11.55;5.22;;;15.50;99.90;;;;;;5080488;28;20100;-74
2022/08/16 00:15:30;;;;;;;9.45;4.82;;;17.30;99.90;;;;;;5061906;28;20044;-73
2022/08/16 00:17:55;;;;;;;9.77;4.85;;;17.20;99.90;;;;;;5080637;28;20016;-78
2022/08/16 00:20:22;;;;;;;10.60;4.60;;;17.20;99.90;;;;;;5080300;28;20027;-75
2022/08/16 00:22:49;;;;;;;8.65;3.65;;;18.20;99.90;;;;;;5080173;28;20105;-75
2022/08/16 00:25:20;;;;;;;9.73;4.20;;;18.20;99.90;;;;;;5080665;28;20093;-74
2022/08/16 00:27:45;;;;;;;8.80;4.30;;;17.70;99.90;;;;;;5080170;28;20044;-74
2022/08/16 00:30:13;;;;;;;9.27;4.78;;;17.70;99.90;;;;;;5080166;28;20044;-74
2022/08/16 00:32:42;;;;;;;11.20;5.03;;;17.70;99.90;;;;;;5080040;28;20024;-74
2022/08/16 00:35:12;;;;;;;8.15;4.07;;;17.20;99.90;;;;;;5062040;28;20039;-74
2022/08/16 00:37:37;;;;;;;11.63;5.68;;;17.90;99.90;;;;;;5079943;28;20018;-74
2022/08/16 00:40:06;;;;;;;10.00;4.80;;;17.40;99.90;;;;;;5080903;28;20024;-74
2022/08/16 00:42:32;;;;;;;10.82;5.15;;;17.40;99.90;;;;;;5063185;28;20662;-75
2022/08/16 00:45:23;;;;;;;9.70;4.72;;;17.30;99.90;;;;;;5081857;28;20055;-74
2022/08/16 00:47:49;;;;;;;8.65;4.45;;;17.10;99.90;;;;;;5063149;28;20051;-75
2022/08/16 00:50:18;;;;;;;8.45;4.13;;;17.60;99.90;;;;;;5082166;28;20031;-76
2022/08/16 00:52:44;;;;;;;9.07;3.97;;;17.80;99.90;;;;;;5080820;28;20154;-76
2022/08/16 00:55:10;;;;;;;9.30;4.75;;;17.60;99.90;;;;;;5080314;28;20107;-75
2022/08/16 00:57:46;;;;;;;10.75;4.97;;;17.80;99.90;;;;;;5080379;28;20020;-75
2022/08/16 01:00:12;;;;;;;9.90;4.18;;;18.00;99.90;;;;;;5080309;28;20020;-75
2022/08/16 01:02:38;;;;;;;9.40;4.43;;;17.70;99.90;;;;;;5061615;28;20019;-75
2022/08/16 01:05:04;;;;;;;10.35;4.88;;;17.90;99.90;;;;;;5080434;28;20016;-75
2022/08/16 01:07:30;;;;;;;9.63;4.30;;;17.80;99.90;;;;;;5080460;28;20031;-75
2022/08/16 01:09:56;;;;;;;9.38;4.32;;;17.40;99.90;;;;;;5082380;28;20036;-75
2022/08/16 01:12:22;;;;;;;10.00;4.68;;;18.10;99.90;;;;;;5080529;28;20437;-73
2022/08/16 01:14:53;;;;;;;7.88;3.45;;;17.90;99.90;;;;;;5079083;28;20651;-72
2022/08/16 01:17:21;;;;;;;8.77;4.03;;;17.20;99.90;;;;;;5079979;28;20024;-73
2022/08/16 01:19:52;;;;;;;7.60;3.58;;;17.20;99.90;;;;;;5079287;28;20213;-76
2022/08/16 01:22:29;;;;;;;10.20;5.00;;;17.20;99.90;;;;;;5061094;28;20031;-73
2022/08/16 01:25:00;;;;;;;11.05;4.55;;;17.90;99.90;;;;;;5060680;28;20026;-77
2022/08/16 01:27:32;;;;;;;8.20;3.72;;;17.50;99.90;;;;;;5079269;28;20031;-73
2022/08/16 01:30:12;;;;;;;9.73;4.10;;;17.90;99.90;;;;;;5060191;28;20077;-75
2022/08/16 01:32:41;;;;;;;11.82;4.82;;;;;;;;;;5060734;28;20016;-75
2022/08/16 01:35:25;;;;;;;9.15;4.05;;;17.60;99.90;;;;;;5060689;28;20031;-73
2022/08/16 01:38:12;;;;;;;10.05;3.88;;;18.10;99.90;;;;;;5060478;28;20590;-75
2022/08/16 01:40:38;;;;;;;10.15;4.43;;;17.60;99.90;;;;;;5078341;28;20048;-74
2022/08/16 01:43:04;;;;;;;8.90;4.88;;;17.40;99.90;;;;;;5078891;28;20046;-74
2022/08/16 01:45:30;;;;;;;9.13;3.88;;;17.30;99.90;;;;;;5078687;28;20116;-75
2022/08/16 01:47:56;;;;;;;11.25;4.55;;;17.10;99.90;;;;;;5078389;28;20020;-74
2022/08/16 01:50:24;;;;;;;9.73;5.18;;;16.40;99.90;;;;;;5078279;28;20028;-75
2022/08/16 01:52:50;;;;;;;9.35;4.22;;;;;;;;;;5078227;28;20020;-74
2022/08/16 01:55:21;;;;;;;9.55;3.80;;;17.00;99.90;;;;;;5078130;28;20729;-73
2022/08/16 01:57:46;;;;;;;11.50;4.35;;;17.30;99.90;;;;;;5078407;28;20080;-75
2022/08/16 02:00:14;;;;;;;11.63;4.88;;;17.20;99.90;;;;;;5078415;28;20023;-74
2022/08/16 02:02:41;;;;;;;9.20;4.82;;;17.30;99.90;;;;;;5060055;28;20008;-73
2022/08/16 02:05:07;;;;;;;9.50;4.70;;;17.30;99.90;;;;;;5059900;28;20506;-73
2022/08/16 02:07:33;;;;;;;9.80;3.78;;;18.00;99.90;;;;;;5078525;28;20203;-74
2022/08/16 02:10:02;;;;;;;9.32;3.90;;;18.60;99.90;;;;;;5078269;28;20651;-75
2022/08/16 02:12:29;;;;;;;8.20;3.80;;;18.50;99.90;;;;;;5059750;28;20077;-74
2022/08/16 02:14:55;;;;;;;13.05;4.82;;;19.00;99.90;;;;;;5077823;28;20027;-77
2022/08/16 02:17:21;;;;;;;9.80;3.92;;;19.20;99.90;;;;;;5078223;28;20028;-73
2022/08/16 02:19:48;;;;;;;8.93;4.22;;;19.00;99.90;;;;;;5078159;28;20162;-73
2022/08/16 02:22:24;;;;;;;7.70;3.97;;;19.30;99.90;;;;;;5059623;28;20115;-74
2022/08/16 02:24:50;;;;;;;10.80;4.15;;;19.00;99.90;;;;;;5077955;28;20225;-74
2022/08/16 02:27:19;;;;;;;8.13;3.97;;;18.40;99.90;;;;;;5078383;28;20731;-74
2022/08/16 02:29:45;;;;;;;9.13;3.80;;;17.70;99.90;;;;;;5077806;28;20709;-73
2022/08/16 02:32:14;;;;;;;9.13;3.90;;;17.50;99.90;;;;;;5058697;28;20028;-74
2022/08/16 02:34:40;;;;;;;8.05;3.65;;;17.30;99.90;;;;;;5077942;28;20639;-74
2022/08/16 02:37:06;;;;;;;9.18;3.90;;;17.20;99.90;;;;;;5077739;28;20017;-76
2022/08/16 02:39:32;;;;;;;10.63;4.95;;;17.20;99.90;;;;;;5059656;28;20019;-75
2022/08/16 02:41:58;;;;;;;10.68;4.35;;;17.40;99.90;;;;;;5077628;28;20019;-74
2022/08/16 02:44:24;;;;;;;8.23;3.83;;;17.60;99.90;;;;;;5077418;28;20019;-74
2022/08/16 02:46:50;;;;;;;10.55;4.15;;;18.10;99.90;;;;;;5077302;28;20116;-76
2022/08/16 02:49:16;;;;;;;12.20;4.78;;;18.00;99.90;;;;;;5059790;28;20619;-77
2022/08/16 02:51:42;;;;;;;8.77;3.83;;;17.80;99.90;;;;;;5059767;28;20025;-74
2022/08/16 02:54:09;;;;;;;7.45;3.47;;;17.80;99.90;;;;;;5077336;28;20642;-75
2022/08/16 02:56:34;;;;;;;8.20;4.38;;;18.10;99.90;;;;;;5077331;28;20029;-76
2022/08/16 02:59:01;;;;;;;10.38;3.88;;;17.60;99.90;;;;;;5077430;28;20062;-74
2022/08/16 03:01:30;;;;;;;8.45;4.13;;;17.20;99.90;;;;;;5059327;28;20070;-77
2022/08/16 03:04:02;;;;;;;7.88;4.10;;;16.60;99.90;;;;;;5077577;28;20075;-78
2022/08/16 03:06:31;;;;;;;9.23;4.65;;;16.60;99.90;;;;;;5067903;28;20097;-78
2022/08/16 03:09:02;;;;;;;12.13;4.28;;;16.40;99.90;;;;;;5075396;28;20028;-77
2022/08/16 03:15:19;;;;;;;10.27;4.30;;;14.90;99.90;;;;;;5010661;28;20131;-78
2022/08/16 03:17:45;;;;;;;8.10;3.72;;;15.80;99.90;;;;;;4997322;28;20030;-75
2022/08/16 03:20:13;;;;;;;9.98;4.47;;;16.10;99.90;;;;;;4996022;28;20030;-75
2022/08/16 03:22:40;;;;;;;6.70;3.80;;;16.00;99.90;;;;;;4994520;28;20014;-75
2022/08/16 03:25:09;;;;;;;8.30;3.80;;;16.30;99.90;;;;;;4995213;28;20041;-79
2022/08/16 03:27:37;;;;;;;9.10;4.50;;;16.30;99.90;;;;;;4997261;28;20128;-77
2022/08/16 03:30:26;;;;;;;10.40;4.55;;;17.00;99.90;;;;;;4999864;28;20022;-85
2022/08/16 03:32:52;;;;;;;9.93;4.10;;;16.90;99.90;;;;;;4999472;28;20659;-76
2022/08/16 03:35:22;;;;;;;11.35;5.18;;;16.70;99.90;;;;;;4998715;28;20107;-80
2022/08/16 03:37:51;;;;;;;9.18;4.18;;;16.70;99.90;;;;;;4998507;28;20014;-75
2022/08/16 03:40:17;;;;;;;10.85;4.45;;;16.80;99.90;;;;;;4998977;28;20744;-75
2022/08/16 03:42:43;;;;;;;8.30;4.22;;;16.40;99.90;;;;;;4998973;28;20200;-74
2022/08/16 03:45:09;;;;;;;8.52;4.45;;;16.30;99.90;;;;;;5014198;28;20661;-75
2022/08/16 03:47:35;;;;;;;8.82;4.22;;;16.40;99.90;;;;;;5081846;28;20213;-76
2022/08/16 03:50:03;;;;;;;8.77;3.90;;;16.50;99.90;;;;;;5063067;28;20262;-75
2022/08/16 03:52:29;;;;;;;8.35;3.78;;;16.60;99.90;;;;;;5063287;28;20024;-75
2022/08/16 03:54:54;;;;;;;11.93;4.50;;;16.40;99.90;;;;;;5063162;28;20762;-78
2022/08/16 03:57:20;;;;;;;15.48;4.68;;;16.20;99.90;;;;;;5063103;28;20036;-76
2022/08/16 03:59:46;;;;;;;9.32;4.07;;;16.20;99.90;;;;;;5081522;28;20044;-76
2022/08/16 04:02:12;;;;;;;14.63;5.00;;;16.30;99.90;;;;;;5081706;28;20024;-75
2022/08/16 04:04:39;;;;;;;8.85;4.88;;;16.30;99.90;;;;;;5081337;28;20016;-75
2022/08/16 04:07:06;;;;;;;12.15;4.18;;;15.20;99.90;;;;;;5081614;28;20024;-74
2022/08/16 04:09:33;;;;;;;9.30;4.18;;;16.40;99.90;;;;;;5081738;28;20639;-76
2022/08/16 04:11:59;;;;;;;8.77;4.53;;;16.70;99.90;;;;;;5084134;28;20028;-77
2022/08/16 04:14:25;;;;;;;8.88;3.95;;;16.90;99.90;;;;;;5083939;28;20678;-74
2022/08/16 04:16:51;;;;;;;10.50;4.75;;;16.30;99.90;;;;;;5062387;28;20040;-79
2022/08/16 04:19:17;;;;;;;9.93;3.90;;;16.90;99.90;;;;;;5065065;28;20071;-73
2022/08/16 04:21:42;;;;;;;8.82;4.00;;;17.30;99.90;;;;;;5062998;28;20028;-78
2022/08/16 04:24:09;;;;;;;10.32;4.03;;;;;;;;;;5081892;28;20079;-76
2022/08/16 04:26:34;;;;;;;7.63;3.80;;;17.60;99.90;;;;;;5063767;28;20028;-75
2022/08/16 04:29:01;;;;;;;9.50;4.50;;;17.80;99.90;;;;;;5081284;28;20024;-75
2022/08/16 04:31:27;;;;;;;8.50;4.10;;;17.50;99.90;;;;;;5062790;28;20142;-77
2022/08/16 04:33:58;;;;;;;8.25;3.75;;;17.70;99.90;;;;;;5080729;28;20022;-83
2022/08/16 04:36:24;;;;;;;8.25;4.07;;;17.90;99.90;;;;;;5080065;28;20036;-75
2022/08/16 04:38:51;;;;;;;9.48;4.50;;;;;;;;;;5080503;28;20012;-74
2022/08/16 04:41:17;;;;;;;8.25;3.70;;;17.40;99.90;;;;;;5080117;28;20027;-75
2022/08/16 04:43:43;;;;;;;7.85;3.72;;;17.90;99.90;;;;;;5080142;28;20566;-76
2022/08/16 04:46:09;;;;;;;8.95;4.05;;;18.30;99.90;;;;;;5079445;28;20030;-74
2022/08/16 04:48:37;;;;;;;8.95;3.83;;;18.40;99.90;;;;;;5080098;28;20103;-74
2022/08/16 04:51:03;;;;;;;8.82;3.83;;;18.20;99.90;;;;;;5080049;28;20024;-76
2022/08/16 04:53:29;;;;;;;8.98;4.00;;;18.00;99.90;;;;;;5079726;28;20035;-74
2022/08/16 04:55:55;;;;;;;8.68;4.05;;;17.80;99.90;;;;;;5079895;28;20025;-74
2022/08/16 04:58:21;;;;;;;15.65;4.38;;;17.80;99.90;;;;;;5079609;28;20694;-76
2022/08/16 05:00:47;;;;;;;6.93;3.72;;;18.50;99.90;;;;;;5079680;28;20628;-75
2022/08/16 05:03:13;;;;;;;7.10;3.50;;;18.00;99.90;;;;;;5079730;28;20270;-75
2022/08/16 05:05:40;;;;;;;7.32;3.55;;;17.90;99.90;;;;;;5080088;28;20016;-75
2022/08/16 05:08:07;;;;;;;6.18;3.13;;;18.60;99.90;;;;;;5079324;28;20070;-75
2022/08/16 05:10:33;;;;;;;8.50;4.18;;;18.70;99.90;;;;;;5079951;28;20032;-75
2022/08/16 05:13:00;;;;;;;7.95;4.05;;;19.10;99.90;;;;;;5079413;28;20031;-75
2022/08/16 05:15:26;;;;;;;11.07;4.22;;;18.90;99.90;;;;;;5079506;28;20093;-75
2022/08/16 05:17:53;;;;;;;8.50;4.10;;;18.90;99.90;;;;;;5079832;28;20012;-75
2022/08/16 05:20:21;;;;;;;16.58;4.97;;;19.10;99.90;;;;;;5079784;28;20555;-75
2022/08/16 05:22:47;;;;;;;9.15;3.70;;;19.10;99.90;;;;;;5079687;28;20286;-76
2022/08/16 05:25:14;;;;;;;8.98;4.10;;;19.20;99.90;;;;;;5079598;28;20016;-75
2022/08/16 05:27:41;;;;;;;7.95;3.83;;;18.90;99.90;;;;;;5079423;28;20525;-74
2022/08/16 05:30:11;;;;;;;8.18;3.60;;;20.80;99.90;;;;;;5079311;28;20032;-75
2022/08/16 05:32:37;;;;;;;6.60;3.50;;;19.30;99.90;;;;;;5079186;28;20027;-77
2022/08/16 05:35:06;;;;;;;12.57;4.25;;;19.10;99.90;;;;;;5079130;28;20028;-76
2022/08/16 05:37:33;;;;;;;8.15;3.78;;;18.90;99.90;;;;;;5061589;28;20023;-76
2022/08/16 05:40:00;;;;;;;7.82;3.85;;;18.90;99.90;;;;;;5061489;28;20670;-74
2022/08/16 05:42:26;;;;;;;9.65;4.13;;;18.90;99.90;;;;;;5060846;28;20074;-75
2022/08/16 05:44:51;;;;;;;8.32;3.90;;;19.10;99.90;;;;;;5079356;28;20051;-76
2022/08/16 05:47:17;;;;;;;9.18;4.30;;;19.10;99.90;;;;;;5060961;28;20212;-76
2022/08/16 05:49:44;;;;;;;10.52;4.95;;;19.60;99.90;;;;;;5078181;28;20028;-76
2022/08/16 05:52:11;;;;;;;16.23;7.35;;;19.70;99.90;;;;;;5078713;28;20513;-75
2022/08/16 05:54:37;;;;;;;7.93;4.10;;;19.60;99.90;;;;;;5060449;28;20073;-79
2022/08/16 05:57:04;;;;;;;10.52;4.75;;;19.60;99.90;;;;;;5079140;28;20697;-76
2022/08/16 05:59:30;;;;;;;8.15;4.28;;;19.90;99.90;;;;;;5060217;28;20047;-78
2022/08/16 06:01:57;;;;;;;9.50;4.90;;;19.50;99.90;;;;;;5060414;28;20054;-75
2022/08/16 06:04:23;;;;;;;9.27;4.35;;;19.60;99.90;;;;;;5060524;28;20016;-76
2022/08/16 06:06:49;;;;;;;7.95;3.80;;;19.60;99.90;;;;;;5078457;28;20688;-75
2022/08/16 06:09:16;;;;;;;7.70;3.42;;;19.90;99.90;;;;;;5078373;28;20035;-75
2022/08/16 06:11:44;;;;;;;8.52;4.40;;;20.00;99.90;;;;;;5059669;28;20675;-76
2022/08/16 06:14:10;;;;;;;7.10;3.90;;;20.20;99.90;;;;;;5078306;28;20016;-76
2022/08/16 06:16:36;;;;;;;8.32;3.72;;;20.90;99.90;;;;;;5078363;28;20089;-76
2022/08/16 06:19:05;;;;;;;10.90;4.70;;;20.60;99.90;;;;;;5078228;28;20497;-75
2022/08/16 06:21:34;;;;;;;9.05;3.80;;;21.20;99.90;;;;;;5078425;28;20024;-76
2022/08/16 06:24:03;;;;;;;11.80;4.47;;;21.40;99.90;;;;;;5078371;28;20012;-76
2022/08/16 06:26:29;;;;;;;9.10;4.00;;;21.90;99.90;;;;;;5078140;28;20505;-76
2022/08/16 06:28:55;;;;;;;7.32;3.83;;;21.80;99.90;;;;;;5077961;28;20066;-76
2022/08/16 06:31:21;;;;;;;9.07;4.40;;;22.00;99.80;;;;;;5078059;28;20031;-76
2022/08/16 06:33:47;;;;;;;10.57;4.60;;;22.10;99.40;;;;;;5078347;28;20589;-77
2022/08/16 06:36:14;;;;;;;10.90;4.93;;;22.40;99.10;;;;;;5077805;28;20540;-76
2022/08/16 06:38:41;;;;;;;7.97;3.88;;;22.20;98.70;;;;;;5079003;28;20136;-75
2022/08/16 06:41:08;;;;;;;10.05;4.20;;;22.00;99.80;;;;;;5060877;28;20085;-77
2022/08/16 06:43:37;;;;;;;10.20;4.72;;;22.00;98.90;;;;;;5078399;28;20012;-76
2022/08/16 06:46:05;;;;;;;9.43;4.60;;;20.50;98.80;;;;;;5078549;28;20021;-76
2022/08/16 06:48:32;;;;;;;9.32;4.55;;;22.00;98.80;;;;;;5079276;28;20077;-76
2022/08/16 06:50:57;;;;;;;9.65;4.75;;;22.20;98.90;;;;;;5078601;28;20044;-77
2022/08/16 06:53:26;;;;;;;8.10;3.67;;;22.20;98.50;;;;;;5078461;28;20050;-76
2022/08/16 06:55:57;;;;;;;9.23;4.82;;;22.40;99.00;;;;;;5077755;28;20038;-75
2022/08/16 06:58:23;;;;;;;9.57;4.60;;;24.70;98.60;;;;;;5077609;28;20248;-76
2022/08/16 07:00:52;;;;;;;8.32;4.65;;;22.70;98.70;;;;;;5059270;28;20697;-75
2022/08/16 07:03:19;;;;;;;8.02;3.97;;;20.70;98.30;;;;;;5077978;28;20020;-76
2022/08/16 07:05:45;;;;;;;10.35;4.85;;;22.60;98.40;;;;;;5059763;28;20013;-76
2022/08/16 07:08:11;;;;;;;11.20;5.03;;;22.50;98.40;;;;;;5059958;28;20059;-76
2022/08/16 07:10:37;;;;;;;13.30;5.13;;;;;;;;;;5077673;28;20055;-76
2022/08/16 07:13:04;;;;;;;16.08;6.43;;;22.70;97.60;;;;;;5077413;28;20056;-76
2022/08/16 07:15:30;;;;;;;12.50;4.95;;;22.70;98.30;;;;;;5077353;28;20028;-76
2022/08/16 07:17:56;;;;;;;8.52;4.95;;;22.70;97.90;;;;;;5077510;28;20016;-80
2022/08/16 07:20:24;;;;;;;11.00;5.60;;;22.80;97.90;;;;;;5077884;28;20063;-76
2022/08/16 07:22:50;;;;;;;10.30;4.68;;;22.90;97.90;;;;;;5077756;28;20062;-81
2022/08/16 07:25:17;;;;;;;7.95;4.18;;;23.10;96.90;;;;;;5059271;28;20127;-78
2022/08/16 07:27:43;;;;;;;9.88;4.68;;;23.00;97.70;;;;;;5077415;28;20073;-74
2022/08/16 07:30:13;;;;;;;10.70;5.13;;;23.70;97.40;;;;;;5077332;28;20024;-75
2022/08/16 07:32:41;;;;;;;8.13;4.57;;;23.10;97.20;;;;;;5077048;28;20008;-74
2022/08/16 07:35:08;;;;;;;10.73;5.20;;;23.20;96.90;;;;;;5058452;28;20036;-75
2022/08/16 07:37:34;;;;;;;8.35;4.45;;;23.20;97.10;;;;;;5059344;28;20020;-75
2022/08/16 07:40:00;;;;;;;10.57;5.07;;;23.60;97.90;;;;;;5077076;28;20012;-76
2022/08/16 07:42:26;;;;;;;10.15;4.15;;;;;;;;;;5077435;28;20085;-76
2022/08/16 07:44:52;;;;;;;10.43;5.13;;;23.30;96.70;;;;;;5059016;28;20023;-74
2022/08/16 07:47:18;;;;;;;11.35;5.18;;;22.60;96.50;;;;;;5059073;28;20028;-75
2022/08/16 07:49:44;;;;;;;8.73;3.88;;;23.50;96.40;;;;;;5058603;28;20027;-74
2022/08/16 07:52:09;;;;;;;8.60;4.15;;;23.70;96.60;;;;;;5077227;28;20094;-75
2022/08/16 07:54:37;;;;;;;9.43;5.00;;;23.60;95.50;;;;;;5077034;28;20012;-75
2022/08/16 07:57:04;;;;;;;8.27;4.32;;;23.70;96.10;;;;;;5077684;28;20024;-75
2022/08/16 07:59:29;;;;;;;10.90;5.70;;;23.50;96.40;;;;;;5076849;28;20675;-76
2022/08/16 08:01:56;;;;;;;9.23;4.93;;;23.50;96.00;;;;;;5077291;28;20020;-74
2022/08/16 08:04:21;;;;;;;9.50;4.03;;;23.60;96.50;;;;;;5077070;28;20732;-74
2022/08/16 08:06:47;;;;;;;8.73;4.00;;;23.90;96.30;;;;;;5058654;28;20119;-74
2022/08/16 08:09:13;;;;;;;12.35;5.88;;;24.10;95.80;;;;;;5077176;28;20016;-77
2022/08/16 08:11:39;;;;;;;13.15;6.10;;;24.10;95.50;;;;;;5077122;28;20654;-75
2022/08/16 08:14:05;;;;;;;14.68;5.85;;;24.30;94.80;;;;;;5062438;28;20120;-76
2022/08/16 08:16:32;;;;;;;9.73;4.40;;;24.50;95.00;;;;;;5080962;28;20641;-74
2022/08/16 08:19:04;;;;;;;11.93;5.63;;;24.70;94.50;;;;;;5079921;28;20095;-77
2022/08/16 08:21:34;;;;;;;10.80;5.57;;;25.30;94.50;;;;;;5083650;28;20032;-75
2022/08/16 08:24:00;;;;;;;10.25;4.68;;;;;;;;;;5069007;28;20720;-76
2022/08/16 08:26:27;;;;;;;12.43;4.45;;;25.10;93.40;;;;;;5093319;28;20020;-76
2022/08/16 08:28:53;;;;;;;9.52;4.32;;;25.30;93.90;;;;;;5094026;28;20027;-75
2022/08/16 08:31:19;;;;;;;11.05;4.88;;;22.30;92.80;;;;;;5085808;28;20020;-75
2022/08/16 08:33:44;;;;;;;11.07;3.95;;;25.60;93.60;;;;;;5082112;28;20099;-75
2022/08/16 08:36:15;;;;;;;8.65;3.70;;;25.60;92.60;;;;;;5082472;28;20107;-75
2022/08/16 08:38:42;;;;;;;10.02;3.67;;;25.70;92.70;;;;;;5085774;28;20610;-77
2022/08/16 08:41:10;;;;;;;7.95;3.70;;;26.00;91.70;;;;;;5063573;28;20029;-77
2022/08/16 08:43:36;;;;;;;8.27;3.65;;;26.00;91.80;;;;;;5061829;28;20020;-78
2022/08/16 08:46:02;;;;;;;6.95;3.60;;;26.10;91.50;;;;;;5081273;28;20127;-78
2022/08/16 08:48:35;;;;;;;9.25;4.22;;;26.20;90.90;;;;;;5079948;28;20182;-78
2022/08/16 08:51:06;;;;;;;8.97;3.73;;;27.00;91.10;;;;;;5062186;28;20032;-78
2022/08/16 08:53:33;;;;;;;9.13;4.60;;;26.50;90.60;;;;;;5079403;28;20809;-78
2022/08/16 08:55:59;;;;;;;8.77;3.75;;;26.80;90.10;;;;;;5079989;28;20028;-77
2022/08/16 08:58:26;;;;;;;8.32;2.97;;;27.00;89.30;;;;;;5082599;28;20043;-78
2022/08/16 09:00:51;;;;;;;8.20;4.05;;;27.30;88.60;;;;;;5082341;28;20496;-77
2022/08/16 09:03:17;;;;;;;8.75;4.88;;;27.40;88.00;;;;;;5081388;28;20024;-79
2022/08/16 09:05:43;;;;;;;10.68;4.95;;;27.20;89.00;;;;;;5082334;28;20670;-77
2022/08/16 09:08:10;;;;;;;9.82;5.18;;;27.30;88.20;;;;;;5100094;28;20628;-77
2022/08/16 09:10:37;;;;;;;9.70;4.50;;;27.20;89.10;;;;;;5099461;28;20516;-77
2022/08/16 09:13:04;;;;;;;10.32;4.85;;;27.10;89.10;;;;;;5099937;28;20028;-77
2022/08/16 09:15:31;;;;;;;9.55;4.85;;;26.90;89.70;;;;;;5081102;28;20047;-77
2022/08/16 09:17:57;;;;;;;11.20;4.90;;;27.10;90.40;;;;;;5092851;28;20016;-77
2022/08/16 09:20:25;;;;;;;9.05;4.22;;;29.70;91.10;;;;;;5079371;28;20232;-78
2022/08/16 09:22:53;;;;;;;10.55;4.22;;;27.00;90.30;;;;;;5079761;28;20013;-77
2022/08/16 09:25:19;;;;;;;8.55;3.90;;;26.70;90.50;;;;;;5078651;28;20077;-78
2022/08/16 09:27:45;;;;;;;8.80;3.97;;;26.80;90.10;;;;;;5079822;28;20024;-77
2022/08/16 09:30:11;;;;;;;8.38;3.50;;;26.90;89.60;;;;;;5079467;28;20027;-76
2022/08/16 09:32:37;;;;;;;7.43;3.38;;;26.70;88.40;;;;;;5061426;28;20016;-77
2022/08/16 09:35:06;;;;;;;7.25;3.60;;;26.60;88.00;;;;;;5079185;28;20711;-77
2022/08/16 09:37:36;;;;;;;7.07;3.40;;;26.70;87.80;;;;;;5079735;28;20666;-78
2022/08/16 09:40:02;;;;;;;6.15;2.83;;;26.60;87.80;;;;;;5079299;28;20510;-76
2022/08/16 09:42:36;;;;;;;8.40;3.35;;;26.70;87.80;;;;;;5078911;28;20267;-77
2022/08/16 09:45:03;;;;;;;9.60;4.18;;;26.80;89.00;;;;;;5061237;28;20020;-76
2022/08/16 09:47:31;;;;;;;8.82;3.88;;;27.20;88.90;;;;;;5079122;28;20626;-78
2022/08/16 09:49:57;;;;;;;9.27;3.95;;;27.00;87.60;;;;;;5079072;28;20043;-78
2022/08/16 09:52:24;;;;;;;8.35;3.65;;;26.90;87.20;;;;;;5079286;28;20016;-77
2022/08/16 09:54:50;;;;;;;9.23;3.97;;;27.00;86.90;;;;;;5060760;28;20142;-76
2022/08/16 09:57:16;;;;;;;8.10;3.42;;;27.10;88.00;;;;;;5079186;28;20718;-78
2022/08/16 09:59:42;;;;;;;7.53;3.70;;;27.20;86.60;;;;;;5079133;28;20040;-76
2022/08/16 10:02:08;;;;;;;7.43;3.78;;;27.30;85.90;;;;;;5061409;28;20036;-77
2022/08/16 10:04:33;;;;;;;8.82;3.42;;;27.60;84.90;;;;;;5079384;28;20044;-78
2022/08/16 10:07:00;;;;;;;9.93;3.20;;;27.90;84.60;;;;;;5061160;28;20058;-77
2022/08/16 10:09:27;;;;;;;6.78;3.47;;;27.80;82.90;;;;;;5078876;28;20027;-79
2022/08/16 10:14:39;;;;;;;6.97;2.80;;;28.30;82.40;;;;;;5079090;28;20051;-77
2022/08/16 10:17:05;;;;;;;6.00;2.70;;;28.60;81.00;;;;;;5078784;28;20024;-77
2022/08/16 10:19:31;;;;;;;7.55;3.25;;;28.60;79.50;;;;;;5060510;28;20077;-77
2022/08/16 10:21:58;;;;;;;7.57;3.40;;;28.60;78.30;;;;;;5079207;28;20114;-77
2022/08/16 10:24:25;;;;;;;8.95;3.08;;;28.20;79.10;;;;;;5078849;28;20013;-77
2022/08/16 10:26:51;;;;;;;6.80;3.17;;;25.40;78.00;;;;;;5078869;28;20016;-76
2022/08/16 10:29:18;;;;;;;8.85;4.07;;;28.00;80.00;;;;;;5060637;28;20623;-76
2022/08/16 10:31:44;;;;;;;7.03;3.15;;;27.70;80.40;;;;;;5078600;28;20024;-77
2022/08/16 10:34:10;;;;;;;8.88;3.70;;;27.90;81.40;;;;;;5078606;28;20012;-76
2022/08/16 10:36:36;;;;;;;6.57;3.08;;;28.00;81.10;;;;;;5077962;28;20234;-76
2022/08/16 10:39:03;;;;;;;6.90;2.72;;;28.10;79.40;;;;;;5078499;28;20027;-76
2022/08/16 10:41:29;;;;;;;7.15;3.38;;;28.30;77.80;;;;;;5078390;28;20700;-76
2022/08/16 10:43:54;;;;;;;6.82;3.45;;;28.40;78.70;;;;;;5078135;28;20135;-80
2022/08/16 10:46:20;;;;;;;8.85;2.90;;;28.70;77.40;;;;;;5078603;28;20108;-76
2022/08/16 10:48:46;;;;;;;7.25;3.42;;;29.40;76.40;;;;;;5078641;28;20013;-76
2022/08/16 10:51:12;;;;;;;7.78;3.85;;;29.00;76.90;;;;;;5060394;28;20550;-76
2022/08/16 10:53:38;;;;;;;7.00;3.03;;;29.10;78.00;;;;;;5059820;28;20008;-75
2022/08/16 10:56:07;;;;;;;6.47;3.17;;;28.20;76.50;;;;;;5059545;28;20122;-76
2022/08/16 10:58:34;;;;;;;6.55;2.97;;;29.20;76.20;;;;;;5060024;28;20036;-79
2022/08/16 11:01:04;;;;;;;8.93;3.60;;;26.70;73.30;;;;;;5077508;28;20687;-78
2022/08/16 11:03:30;;;;;;;7.57;3.28;;;;;;;;;;5059772;28;20268;-77
2022/08/16 11:05:56;;;;;;;7.78;4.43;;;29.50;73.60;;;;;;5078028;28;20678;-75
2022/08/16 11:08:22;;;;;;;11.85;3.70;;;29.80;76.00;;;;;;5078516;28;20016;-76
2022/08/16 11:10:49;;;;;;;8.82;3.60;;;29.70;74.00;;;;;;5078829;28;20024;-78
2022/08/16 11:13:21;;;;;;;5.72;2.83;;;29.80;73.60;;;;;;5060404;28;20012;-77
2022/08/16 11:15:47;;;;;;;9.40;3.58;;;29.70;72.50;;;;;;5078977;28;20020;-75
2022/08/16 11:18:13;;;;;;;10.02;3.30;;;29.80;73.40;;;;;;5078024;28;20025;-75
2022/08/16 11:20:43;;;;;;;6.63;3.10;;;30.20;72.80;;;;;;5078001;28;20020;-79
2022/08/16 11:23:10;;;;;;;8.60;3.00;;;30.50;70.60;;;;;;5059796;28;20544;-75
2022/08/16 11:25:38;;;;;;;6.97;3.33;;;30.10;68.90;;;;;;5060270;28;20028;-79
2022/08/16 11:28:06;;;;;;;9.75;3.58;;;30.50;68.30;;;;;;5059774;28;20077;-77
2022/08/16 11:30:35;;;;;;;7.38;3.20;;;30.50;67.50;;;;;;5077830;28;20115;-77
2022/08/16 11:33:00;;;;;;;8.70;3.45;;;30.90;67.80;;;;;;5059447;28;20574;-77
2022/08/16 11:35:30;;;;;;;7.65;3.38;;;31.10;66.60;;;;;;5059768;28;20040;-77
2022/08/16 11:38:13;;;;;;;8.02;3.63;;;31.50;68.20;;;;;;5077651;28;20651;-76
2022/08/16 11:40:57;;;;;;;8.48;3.50;;;31.80;64.60;;;;;;5077505;28;20023;-77
2022/08/16 11:43:26;;;;;;;6.07;3.42;;;32.20;64.80;;;;;;5077686;28;20027;-77
2022/08/16 11:45:53;;;;;;;6.25;3.15;;;32.50;64.40;;;;;;5077638;28;20024;-79
2022/08/16 11:48:19;;;;;;;6.40;3.05;;;33.00;62.40;;;;;;5062754;28;20020;-77
2022/08/16 11:50:46;;;;;;;8.60;3.47;;;33.70;62.20;;;;;;5082037;28;20701;-77
2022/08/16 11:53:20;;;;;;;9.10;3.72;;;33.30;61.40;;;;;;5063704;28;20761;-79
2022/08/16 11:55:47;;;;;;;7.63;3.05;;;33.10;61.60;;;;;;5082163;28;20020;-76
2022/08/16 11:58:13;;;;;;;9.18;3.65;;;33.00;60.80;;;;;;5082169;28;20048;-79
2022/08/16 12:00:42;;;;;;;6.50;3.53;;;32.50;61.70;;;;;;5082261;28;20235;-77
2022/08/16 12:03:09;;;;;;;6.88;3.38;;;32.30;61.30;;;;;;5082162;28;20123;-78
2022/08/16 12:05:35;;;;;;;8.10;3.55;;;32.30;62.80;;;;;;5081671;28;20017;-78
2022/08/16 12:08:05;;;;;;;9.25;3.50;;;32.70;62.20;;;;;;5081685;28;20605;-78
2022/08/16 12:10:33;;;;;;;6.05;3.10;;;32.70;60.50;;;;;;5081163;28;20077;-77
2022/08/16 12:12:58;;;;;;;9.07;3.75;;;33.00;60.80;;;;;;5081444;28;20016;-77
2022/08/16 12:15:25;;;;;;;7.78;3.20;;;33.40;60.60;;;;;;5081333;28;20604;-77
2022/08/16 12:17:53;;;;;;;7.22;3.22;;;33.30;60.60;;;;;;5080858;28;20620;-77
2022/08/16 12:20:24;;;;;;;6.07;3.25;;;33.40;61.10;;;;;;5062982;28;20719;-77
2022/08/16 12:22:51;;;;;;;7.85;3.28;;;33.50;62.40;;;;;;5080820;28;20040;-80
2022/08/16 12:25:22;;;;;;;6.63;3.20;;;33.80;60.00;;;;;;5080975;28;20020;-78
2022/08/16 12:27:49;;;;;;;6.82;3.53;;;33.50;59.80;;;;;;5080436;28;20016;-77
2022/08/16 12:30:19;;;;;;;6.40;3.30;;;33.50;60.80;;;;;;5080691;28;20032;-77
2022/08/16 12:32:45;;;;;;;7.32;3.05;;;33.40;60.80;;;;;;5080518;28;20643;-79
2022/08/16 12:35:16;;;;;;;7.88;3.40;;;33.30;61.40;;;;;;5080490;28;20054;-79
2022/08/16 12:37:45;;;;;;;8.38;3.28;;;33.00;61.20;;;;;;5062049;28;20028;-77
2022/08/16 12:40:19;;;;;;;8.98;3.47;;;32.70;61.90;;;;;;5060286;28;20067;-77
2022/08/16 12:42:49;;;;;;;7.88;3.22;;;31.60;60.80;;;;;;5060532;28;20017;-77
2022/08/16 12:45:18;;;;;;;6.90;3.42;;;32.50;62.30;;;;;;5060040;28;20050;-77
2022/08/16 12:50:29;;;;;;;8.52;3.15;;;32.30;62.40;;;;;;5060628;28;20032;-78
2022/08/16 12:52:55;;;;;;;7.15;3.35;;;32.50;62.10;;;;;;5062863;28;20024;-79
2022/08/16 12:55:23;;;;;;;7.20;3.20;;;32.30;62.10;;;;;;5080280;28;20028;-76
2022/08/16 12:57:55;;;;;;;6.20;3.05;;;32.70;62.60;;;;;;5080222;28;20104;-76